Time;durP1;ratioP1;P1;durP2;ratioP2;P2;SDS_P1;SDS_P2;PMS_P1;PMS_P2;Temp;Humidity;BMP_temperature;BMP_pressure;BME280_temperature;BME280_humidity;BME280_pressure;Samples;Min_cycle;Max_cycle;Signal;HPM_P1;HPM_P2
2023/10/18 00:00:58;;;;;;;30.15;14.95;;;0.60;99.90;;;;;;4413491;28;657316;-66
2023/10/18 00:03:46;;;;;;;32.27;14.90;;;0.60;99.90;;;;;;4433916;28;657907;-65
2023/10/18 00:06:34;;;;;;;33.80;14.53;;;0.50;99.90;;;;;;4401892;28;658274;-65
2023/10/18 00:09:45;;;;;;;31.67;15.30;;;0.40;99.90;;;;;;4430032;28;657477;-65
2023/10/18 00:12:34;;;;;;;34.53;15.83;;;0.50;99.90;;;;;;4385884;28;658008;-66
2023/10/18 00:15:22;;;;;;;35.50;15.97;;;0.50;99.90;;;;;;4419952;28;658643;-65
2023/10/18 00:18:11;;;;;;;38.73;15.43;;;0.40;99.90;;;;;;4400557;28;658900;-65
2023/10/18 00:21:01;;;;;;;33.63;16.13;;;0.40;99.90;;;;;;4400653;28;657627;-65
2023/10/18 00:23:48;;;;;;;34.97;15.50;;;0.40;99.90;;;;;;4401283;28;657445;-65
2023/10/18 00:26:36;;;;;;;29.80;15.53;;;0.40;99.90;;;;;;4421186;28;659202;-65
2023/10/18 00:29:24;;;;;;;27.30;14.13;;;0.30;99.90;;;;;;4404862;28;658026;-65
2023/10/18 00:32:11;;;;;;;36.33;14.83;;;0.30;99.90;;;;;;4420280;28;658596;-65
2023/10/18 00:34:59;;;;;;;34.53;17.33;;;0.30;99.90;;;;;;4402365;28;657706;-65
2023/10/18 00:37:47;;;;;;;37.77;18.90;;;0.30;99.90;;;;;;4424182;28;657454;-65
2023/10/18 00:40:36;;;;;;;41.30;20.40;;;0.30;99.90;;;;;;4397306;28;657769;-65
2023/10/18 00:43:26;;;;;;;56.10;25.50;;;0.20;99.90;;;;;;4401648;28;657234;-65
2023/10/18 00:46:15;;;;;;;48.60;23.97;;;0.20;99.90;;;;;;4401575;28;657530;-65
2023/10/18 00:49:02;;;;;;;37.43;17.77;;;0.30;99.90;;;;;;4422783;28;658075;-65
2023/10/18 00:51:50;;;;;;;40.87;20.23;;;0.20;99.90;;;;;;4426557;28;658182;-65
2023/10/18 00:54:38;;;;;;;39.78;20.65;;;0.20;99.90;;;;;;4415262;28;658932;-65
2023/10/18 00:57:34;;;;;;;43.90;22.17;;;0.20;99.90;;;;;;4419296;28;658471;-65
2023/10/18 01:00:24;;;;;;;46.13;22.60;;;0.20;99.90;;;;;;4402044;28;658416;-65
2023/10/18 01:03:28;;;;;;;49.63;23.83;;;0.10;99.90;;;;;;4403527;28;657459;-65
2023/10/18 01:06:17;;;;;;;50.93;23.23;;;0.10;99.90;;;;;;4404485;28;658131;-65
2023/10/18 01:09:06;;;;;;;46.57;21.93;;;0.00;99.90;;;;;;4407342;28;658638;-65
2023/10/18 01:11:53;;;;;;;62.90;27.37;;;0.00;99.90;;;;;;4410009;28;657566;-66
2023/10/18 01:14:41;;;;;;;61.87;30.10;;;0.00;99.90;;;;;;4421589;28;658536;-65
2023/10/18 01:17:28;;;;;;;62.43;30.60;;;0.00;99.90;;;;;;4405460;28;658178;-65
2023/10/18 01:20:27;;;;;;;63.40;30.47;;;0.10;99.90;;;;;;4433878;28;657276;-65
2023/10/18 01:23:16;;;;;;;62.47;30.73;;;0.00;99.90;;;;;;4413539;28;657561;-65
2023/10/18 01:26:05;;;;;;;69.03;31.20;;;0.00;99.90;;;;;;4410013;28;658065;-66
2023/10/18 01:28:52;;;;;;;75.53;31.53;;;-0.10;99.90;;;;;;4429913;28;657553;-66
2023/10/18 01:31:44;;;;;;;63.25;29.10;;;-0.10;99.90;;;;;;4402544;28;658933;-66
2023/10/18 01:34:32;;;;;;;64.80;30.10;;;-0.10;99.90;;;;;;4407409;28;658572;-65
2023/10/18 01:37:20;;;;;;;61.23;29.17;;;-0.10;99.90;;;;;;4408722;28;659687;-65
2023/10/18 01:40:20;;;;;;;57.47;28.37;;;-0.10;99.90;;;;;;4408555;28;658553;-66
2023/10/18 01:43:10;;;;;;;53.90;24.37;;;-0.20;99.90;;;;;;4383927;28;659184;-65
2023/10/18 01:45:57;;;;;;;59.47;25.40;;;-0.20;99.90;;;;;;4406645;28;658790;-65
2023/10/18 01:48:50;;;;;;;52.20;24.50;;;-0.20;99.90;;;;;;4420036;28;660125;-65
2023/10/18 01:51:38;;;;;;;60.60;26.37;;;-0.20;99.90;;;;;;4407121;28;658837;-65
2023/10/18 01:54:26;;;;;;;63.97;28.17;;;-0.20;99.90;;;;;;4433170;28;659548;-65
2023/10/18 01:57:13;;;;;;;55.33;24.73;;;-0.20;99.90;;;;;;4410700;28;660409;-65
2023/10/18 02:00:02;;;;;;;49.17;22.47;;;-0.20;99.90;;;;;;4427709;28;659078;-65
2023/10/18 02:02:51;;;;;;;53.07;22.50;;;-0.20;99.90;;;;;;4405447;28;659756;-66
2023/10/18 02:05:39;;;;;;;45.73;22.10;;;-0.20;99.90;;;;;;4400333;28;658685;-65
2023/10/18 02:08:26;;;;;;;45.15;22.23;;;-0.20;99.90;;;;;;4425753;28;658173;-66
2023/10/18 02:11:14;;;;;;;47.77;21.30;;;-0.30;99.90;;;;;;4405926;28;659011;-66
2023/10/18 02:14:01;;;;;;;48.67;22.97;;;-0.20;99.90;;;;;;4421482;28;659553;-66
2023/10/18 02:16:49;;;;;;;45.50;22.23;;;-0.30;99.90;;;;;;4406706;28;658725;-65
2023/10/18 02:19:37;;;;;;;46.13;21.27;;;-0.30;99.90;;;;;;4421606;28;659049;-65
2023/10/18 02:22:24;;;;;;;45.13;21.00;;;-0.30;99.90;;;;;;4408681;28;659110;-65
2023/10/18 02:25:23;;;;;;;43.93;20.30;;;-0.30;99.90;;;;;;4424463;28;659500;-65
2023/10/18 02:28:22;;;;;;;47.70;20.63;;;-0.30;99.90;;;;;;4406179;28;659062;-66
2023/10/18 02:31:13;;;;;;;45.37;20.43;;;-0.30;99.90;;;;;;4406130;28;658628;-65
2023/10/18 02:34:04;;;;;;;42.47;20.13;;;-0.30;99.90;;;;;;4404622;28;659527;-65
2023/10/18 02:36:52;;;;;;;42.10;19.70;;;-0.40;99.90;;;;;;4395753;28;659239;-66
2023/10/18 02:39:39;;;;;;;44.90;19.30;;;-0.40;99.90;;;;;;4399369;28;658474;-66
2023/10/18 02:42:26;;;;;;;43.90;19.77;;;-0.30;99.90;;;;;;4421767;28;661387;-65
2023/10/18 02:45:17;;;;;;;40.93;18.43;;;-0.30;99.90;;;;;;4404351;28;659068;-65
2023/10/18 02:48:08;;;;;;;42.63;18.90;;;-0.40;99.90;;;;;;4396230;28;659382;-65
2023/10/18 02:50:58;;;;;;;41.87;18.40;;;-0.30;99.90;;;;;;4395763;28;660126;-66
2023/10/18 02:53:45;;;;;;;44.50;19.17;;;-0.30;99.90;;;;;;4395608;28;659596;-65
2023/10/18 02:56:37;;;;;;;42.20;19.10;;;-0.30;99.90;;;;;;4397221;28;658658;-66
2023/10/18 02:59:27;;;;;;;40.27;18.17;;;-0.30;99.90;;;;;;4404722;28;658822;-65
2023/10/18 03:02:14;;;;;;;45.37;18.70;;;-0.40;99.90;;;;;;4404787;28;659474;-65
2023/10/18 03:05:05;;;;;;;39.50;17.83;;;-0.40;99.90;;;;;;4421043;28;658629;-65
2023/10/18 03:07:54;;;;;;;43.00;19.20;;;-0.40;99.90;;;;;;4407777;28;658968;-66
2023/10/18 03:10:45;;;;;;;40.73;17.93;;;-0.40;99.90;;;;;;4418457;28;660604;-65
2023/10/18 03:13:37;;;;;;;39.80;18.40;;;-0.40;99.90;;;;;;4401449;28;658789;-65
2023/10/18 03:16:39;;;;;;;37.33;18.27;;;-0.40;99.90;;;;;;4401362;28;659550;-65
2023/10/18 03:19:31;;;;;;;38.50;17.55;;;-0.40;99.90;;;;;;4370007;28;658589;-66
2023/10/18 03:22:22;;;;;;;37.17;17.03;;;-0.40;99.90;;;;;;4405204;28;658804;-65
2023/10/18 03:25:14;;;;;;;42.65;17.73;;;-0.40;99.90;;;;;;4400986;28;659276;-65
2023/10/18 03:28:04;;;;;;;34.20;16.70;;;-0.50;99.90;;;;;;4398079;28;660106;-65
2023/10/18 03:30:54;;;;;;;39.87;17.60;;;-0.50;99.90;;;;;;4398227;28;658592;-66
2023/10/18 03:33:45;;;;;;;39.20;17.57;;;-0.50;99.90;;;;;;4402715;28;658939;-65
2023/10/18 03:36:33;;;;;;;37.33;16.00;;;-0.50;99.90;;;;;;4397600;28;658445;-65
2023/10/18 03:39:21;;;;;;;34.37;16.33;;;-0.50;99.90;;;;;;4428974;28;658772;-65
2023/10/18 03:42:09;;;;;;;36.03;16.50;;;-0.50;99.90;;;;;;4404881;28;659007;-66
2023/10/18 03:44:57;;;;;;;33.67;15.60;;;-0.50;99.90;;;;;;4418912;28;659169;-65
2023/10/18 03:47:57;;;;;;;37.17;16.17;;;-0.50;99.90;;;;;;4406002;28;659573;-65
2023/10/18 03:50:47;;;;;;;35.43;16.73;;;-0.50;99.90;;;;;;4404318;28;658872;-65
2023/10/18 03:53:34;;;;;;;41.37;18.27;;;-0.60;99.90;;;;;;4398477;28;659815;-65
2023/10/18 03:56:22;;;;;;;44.07;18.23;;;-0.70;99.90;;;;;;4428954;28;659263;-65
2023/10/18 03:59:19;;;;;;;35.47;16.63;;;-0.60;99.90;;;;;;4404318;28;660220;-67
2023/10/18 04:02:07;;;;;;;35.17;15.30;;;-0.60;99.90;;;;;;4403635;28;658505;-65
2023/10/18 04:04:59;;;;;;;38.30;17.00;;;-0.60;99.90;;;;;;4403008;28;659632;-65
2023/10/18 04:07:46;;;;;;;36.10;15.70;;;-0.50;99.90;;;;;;4392857;28;658384;-65
2023/10/18 04:10:36;;;;;;;36.03;15.17;;;-0.60;99.90;;;;;;4402727;28;658719;-65
2023/10/18 04:13:24;;;;;;;30.77;15.97;;;-0.60;99.90;;;;;;4398520;28;658456;-66
2023/10/18 04:16:17;;;;;;;30.37;14.57;;;-0.60;99.90;;;;;;4422386;28;658328;-66
2023/10/18 04:19:07;;;;;;;41.07;15.20;;;-0.60;99.90;;;;;;4376505;28;659784;-65
2023/10/18 04:21:55;;;;;;;38.07;16.67;;;-0.60;99.90;;;;;;4407127;28;659273;-66
2023/10/18 04:24:42;;;;;;;37.17;17.13;;;-0.60;99.90;;;;;;4421698;28;658466;-65
2023/10/18 04:27:30;;;;;;;40.10;17.60;;;-0.70;99.90;;;;;;4421995;28;660445;-65
2023/10/18 04:30:21;;;;;;;35.67;15.87;;;-0.70;99.90;;;;;;4423470;28;658870;-66
2023/10/18 04:33:24;;;;;;;37.47;15.20;;;-0.70;99.90;;;;;;4406224;28;658749;-65
2023/10/18 04:36:12;;;;;;;36.73;15.70;;;-0.60;99.90;;;;;;4401901;28;658386;-65
2023/10/18 04:39:02;;;;;;;40.13;16.53;;;-0.50;99.90;;;;;;4401746;28;660492;-65
2023/10/18 04:41:50;;;;;;;40.35;17.70;;;-0.50;99.90;;;;;;4403567;28;659067;-65
2023/10/18 04:44:38;;;;;;;39.17;17.43;;;-0.60;99.90;;;;;;4416587;28;659059;-66
2023/10/18 04:47:32;;;;;;;34.07;15.67;;;-0.60;99.90;;;;;;4423524;28;660731;-66
2023/10/18 04:50:29;;;;;;;38.63;15.67;;;-0.70;99.90;;;;;;4383819;28;658657;-65
2023/10/18 04:53:23;;;;;;;35.63;15.80;;;-0.60;99.90;;;;;;4398181;28;659314;-66
2023/10/18 04:56:09;;;;;;;35.63;16.03;;;-0.60;99.90;;;;;;4377578;28;659963;-65
2023/10/18 04:58:59;;;;;;;32.37;15.50;;;-0.60;99.90;;;;;;4419779;28;658754;-65
2023/10/18 05:01:56;;;;;;;40.57;16.40;;;-0.60;99.90;;;;;;4398353;28;659519;-66
2023/10/18 05:04:43;;;;;;;37.47;15.70;;;-0.60;99.90;;;;;;4376676;28;659291;-65
2023/10/18 05:07:42;;;;;;;36.77;15.93;;;-0.60;99.90;;;;;;4422424;28;660245;-66
2023/10/18 05:10:29;;;;;;;33.30;15.53;;;-0.60;99.90;;;;;;4399670;28;662164;-65
2023/10/18 05:13:32;;;;;;;36.87;15.13;;;-0.60;99.90;;;;;;4419900;28;659466;-65
2023/10/18 05:16:21;;;;;;;31.60;14.63;;;-0.60;99.90;;;;;;4403160;28;658332;-66
2023/10/18 05:19:11;;;;;;;32.37;14.67;;;-0.60;99.90;;;;;;4406047;28;658948;-66
2023/10/18 05:22:03;;;;;;;30.48;14.35;;;-0.60;99.90;;;;;;4403713;28;658660;-68
2023/10/18 05:24:57;;;;;;;36.70;15.88;;;-0.60;99.90;;;;;;4400864;28;660230;-68
2023/10/18 05:27:46;;;;;;;42.87;19.23;;;-0.50;99.90;;;;;;4379152;28;658652;-67
2023/10/18 05:33:48;;;;;;;49.30;21.27;;;-0.50;99.90;;;;;;4386439;28;658453;-67
2023/10/18 05:36:54;;;;;;;48.17;21.70;;;-0.50;99.90;;;;;;4400078;28;659398;-67
2023/10/18 05:40:41;;;;;;;46.23;20.83;;;-0.40;99.90;;;;;;4405565;28;658849;-68
2023/10/18 05:43:00;;;;;;;53.17;23.25;;;-0.30;99.90;;;;;;4383471;28;658864;-67
2023/10/18 05:45:48;;;;;;;51.13;22.73;;;-0.30;99.90;;;;;;4413132;28;659002;-68
2023/10/18 05:48:40;;;;;;;53.70;23.77;;;-0.20;99.90;;;;;;4422342;28;660376;-67
2023/10/18 05:51:32;;;;;;;50.13;23.87;;;-0.20;99.90;;;;;;4388973;28;658691;-67
2023/10/18 05:54:21;;;;;;;52.37;21.93;;;-0.10;99.90;;;;;;4401644;28;660205;-67
2023/10/18 05:57:10;;;;;;;49.97;22.37;;;-0.10;99.90;;;;;;4407251;28;658623;-67
2023/10/18 05:59:59;;;;;;;55.27;23.83;;;0.10;99.90;;;;;;4416158;28;658363;-67
2023/10/18 06:02:47;;;;;;;49.70;23.20;;;0.20;99.90;;;;;;4423941;28;657538;-67
2023/10/18 06:05:34;;;;;;;59.63;24.93;;;0.30;99.90;;;;;;4405933;28;658903;-67
2023/10/18 06:08:23;;;;;;;54.37;24.67;;;0.40;99.90;;;;;;4427917;28;657665;-65
2023/10/18 06:11:13;;;;;;;53.00;24.53;;;0.50;99.90;;;;;;4399929;28;658516;-66
2023/10/18 06:14:02;;;;;;;58.30;25.67;;;0.60;99.90;;;;;;4403516;28;658055;-66
2023/10/18 06:16:52;;;;;;;55.60;26.37;;;0.70;99.90;;;;;;4400152;28;658032;-66
2023/10/18 06:19:41;;;;;;;62.43;26.33;;;0.80;99.90;;;;;;4409654;28;658183;-65
2023/10/18 06:22:39;;;;;;;54.47;24.30;;;0.90;99.90;;;;;;4404905;28;657495;-65
2023/10/18 06:25:26;;;;;;;56.07;25.57;;;1.00;99.90;;;;;;4401469;28;658694;-68
2023/10/18 06:28:19;;;;;;;51.03;25.37;;;1.20;99.90;;;;;;4402557;28;657940;-66
2023/10/18 06:31:08;;;;;;;56.33;27.90;;;1.30;99.90;;;;;;4407163;28;657896;-66
2023/10/18 06:33:59;;;;;;;61.83;29.17;;;1.40;99.90;;;;;;4404418;28;658835;-66
2023/10/18 06:36:47;;;;;;;59.03;27.90;;;1.50;99.90;;;;;;4400638;28;657457;-66
2023/10/18 06:39:35;;;;;;;62.67;29.53;;;1.60;99.90;;;;;;4396856;28;658736;-66
2023/10/18 06:42:26;;;;;;;62.90;29.30;;;1.80;99.90;;;;;;4427502;28;658803;-66
2023/10/18 06:45:17;;;;;;;68.80;31.33;;;2.00;99.90;;;;;;4415703;28;657557;-66
2023/10/18 06:48:08;;;;;;;58.70;27.45;;;2.20;99.90;;;;;;4408083;28;658344;-66
2023/10/18 06:50:57;;;;;;;52.67;22.87;;;2.40;99.90;;;;;;4409559;28;658962;-67
2023/10/18 06:53:47;;;;;;;50.40;24.83;;;2.60;99.90;;;;;;4402976;28;658655;-67
2023/10/18 06:56:39;;;;;;;43.87;19.40;;;2.80;99.90;;;;;;4404015;28;658101;-66
2023/10/18 06:59:27;;;;;;;39.83;17.60;;;3.10;99.90;;;;;;4405234;28;658105;-66
2023/10/18 07:02:14;;;;;;;41.90;19.30;;;3.30;99.90;;;;;;4408678;28;657854;-66
2023/10/18 07:05:03;;;;;;;52.10;21.17;;;3.50;99.90;;;;;;4431350;28;657746;-66
2023/10/18 07:07:52;;;;;;;38.93;18.83;;;3.70;99.90;;;;;;4403471;28;657907;-66
2023/10/18 07:10:53;;;;;;;40.90;19.20;;;3.80;99.90;;;;;;4404451;28;657550;-67
2023/10/18 07:13:42;;;;;;;42.17;17.97;;;4.00;99.90;;;;;;4403291;28;658321;-67
2023/10/18 07:16:38;;;;;;;31.73;16.50;;;4.20;99.90;;;;;;4405879;28;659052;-67
2023/10/18 07:19:29;;;;;;;36.53;16.83;;;4.30;99.90;;;;;;4403209;28;658186;-67
2023/10/18 07:22:19;;;;;;;33.87;15.37;;;4.50;99.90;;;;;;4409134;28;657052;-67
2023/10/18 07:25:19;;;;;;;32.27;14.33;;;4.60;99.90;;;;;;4407561;28;657330;-67
2023/10/18 07:28:06;;;;;;;34.20;15.07;;;4.90;99.90;;;;;;4409548;28;658659;-67
2023/10/18 07:30:55;;;;;;;36.07;16.57;;;5.10;99.90;;;;;;4403529;28;657388;-67
2023/10/18 07:33:42;;;;;;;35.07;15.60;;;5.30;99.90;;;;;;4419505;28;657944;-67
2023/10/18 07:36:34;;;;;;;34.60;16.17;;;5.40;99.90;;;;;;4422008;28;658764;-67
2023/10/18 07:39:25;;;;;;;32.17;14.97;;;5.60;99.90;;;;;;4428789;28;657520;-67
2023/10/18 07:42:14;;;;;;;29.00;14.30;;;5.80;99.90;;;;;;4424042;28;657655;-67
2023/10/18 07:45:04;;;;;;;31.75;13.82;;;6.10;99.90;;;;;;4425951;28;658292;-67
2023/10/18 07:47:54;;;;;;;27.40;13.00;;;6.40;99.90;;;;;;4395346;28;658515;-67
2023/10/18 07:50:49;;;;;;;23.97;13.07;;;6.70;99.90;;;;;;4402940;28;658024;-66
2023/10/18 07:53:37;;;;;;;29.80;13.77;;;7.10;99.90;;;;;;4405079;28;658025;-67
2023/10/18 07:56:27;;;;;;;27.57;13.37;;;7.50;99.90;;;;;;4402202;28;658200;-67
2023/10/18 07:59:28;;;;;;;24.20;12.37;;;7.90;99.90;;;;;;4405663;28;658106;-67
2023/10/18 08:02:23;;;;;;;20.75;11.90;;;8.20;99.90;;;;;;4412759;28;657731;-67
2023/10/18 08:05:10;;;;;;;26.23;11.07;;;8.50;99.90;;;;;;4402172;28;658067;-66
2023/10/18 08:08:08;;;;;;;25.63;12.60;;;8.80;99.90;;;;;;4407381;28;657940;-67
2023/10/18 08:10:55;;;;;;;22.17;10.50;;;9.10;99.90;;;;;;4404660;28;657786;-67
2023/10/18 08:13:46;;;;;;;27.73;12.13;;;9.20;99.90;;;;;;4407582;28;657928;-67
2023/10/18 08:16:43;;;;;;;22.33;12.47;;;9.40;99.90;;;;;;4408149;28;657451;-66
2023/10/18 08:19:32;;;;;;;23.87;11.77;;;9.60;99.90;;;;;;4402382;28;659033;-66
2023/10/18 08:22:22;;;;;;;21.40;10.93;;;9.80;99.90;;;;;;4405337;28;658036;-66
2023/10/18 08:25:21;;;;;;;19.87;9.87;;;10.00;99.90;;;;;;4399231;28;658457;-66
2023/10/18 08:28:13;;;;;;;17.50;8.27;;;9.70;99.90;;;;;;4379707;28;657952;-66
2023/10/18 08:31:10;;;;;;;17.83;8.00;;;9.80;99.90;;;;;;4408836;28;658365;-66
2023/10/18 08:33:59;;;;;;;15.43;7.10;;;9.90;99.90;;;;;;4401409;28;656650;-66
2023/10/18 08:36:48;;;;;;;15.43;8.57;;;9.80;99.90;;;;;;4423677;28;657001;-66
2023/10/18 08:39:39;;;;;;;14.93;7.37;;;9.90;99.90;;;;;;4397246;28;657351;-66
2023/10/18 08:42:30;;;;;;;8.57;5.27;;;9.80;99.90;;;;;;4403872;28;656875;-66
2023/10/18 08:45:23;;;;;;;12.23;6.07;;;9.60;99.90;;;;;;4406343;28;655505;-66
2023/10/18 08:48:11;;;;;;;13.70;6.47;;;9.50;99.90;;;;;;4382232;28;656475;-66
2023/10/18 08:51:02;;;;;;;12.23;5.33;;;10.20;99.90;;;;;;4401902;28;656947;-66
2023/10/18 08:53:49;;;;;;;11.10;5.57;;;10.50;99.90;;;;;;4405029;28;658299;-66
2023/10/18 08:56:41;;;;;;;9.17;5.70;;;10.70;99.90;;;;;;4433606;28;657309;-65
2023/10/18 08:59:28;;;;;;;12.13;6.37;;;11.10;99.90;;;;;;4409579;28;656312;-66
2023/10/18 09:02:21;;;;;;;10.13;4.90;;;10.70;99.90;;;;;;4428435;28;658969;-65
2023/10/18 09:05:11;;;;;;;11.07;6.30;;;11.10;99.90;;;;;;4408308;28;658313;-65
2023/10/18 09:08:03;;;;;;;14.27;6.67;;;11.60;99.90;;;;;;4404775;28;657657;-65
2023/10/18 09:10:54;;;;;;;15.27;7.27;;;12.00;95.70;;;;;;4405081;28;658411;-65
2023/10/18 09:13:42;;;;;;;16.00;7.23;;;12.30;99.90;;;;;;4406291;28;658281;-65
2023/10/18 09:16:35;;;;;;;13.60;7.30;;;12.30;98.40;;;;;;4409452;28;658866;-65
2023/10/18 09:19:27;;;;;;;14.03;7.17;;;12.90;99.90;;;;;;4391149;28;657805;-66
2023/10/18 09:22:15;;;;;;;13.90;6.80;;;13.20;95.60;;;;;;4411241;28;658122;-65
2023/10/18 09:25:04;;;;;;;13.90;7.33;;;13.90;87.40;;;;;;4432907;28;657885;-65
2023/10/18 09:27:52;;;;;;;16.10;8.03;;;14.00;78.60;;;;;;4404395;28;658219;-65
2023/10/18 09:30:39;;;;;;;17.90;7.90;;;13.70;81.90;;;;;;4412163;28;658735;-65
2023/10/18 09:33:27;;;;;;;15.87;7.80;;;13.90;77.60;;;;;;4433731;28;657999;-65
2023/10/18 09:36:23;;;;;;;18.57;7.87;;;13.00;79.60;;;;;;4401889;28;658959;-65
2023/10/18 09:39:10;;;;;;;10.10;5.67;;;13.30;92.70;;;;;;4404439;28;658079;-65
2023/10/18 09:42:01;;;;;;;13.63;7.20;;;13.20;79.10;;;;;;4408145;28;658338;-65
2023/10/18 09:44:48;;;;;;;14.53;7.00;;;13.20;78.30;;;;;;4410046;28;657979;-65
2023/10/18 09:47:37;;;;;;;13.45;6.50;;;13.10;85.60;;;;;;4430668;28;659044;-65
2023/10/18 09:50:24;;;;;;;15.07;6.47;;;13.50;76.00;;;;;;4406769;28;659535;-65
2023/10/18 09:53:12;;;;;;;9.13;4.50;;;12.70;77.90;;;;;;4428546;28;657837;-65
2023/10/18 09:55:59;;;;;;;9.00;4.57;;;13.60;79.50;;;;;;4408225;28;657575;-64
2023/10/18 09:58:48;;;;;;;6.47;4.18;;;13.40;66.90;;;;;;4427300;28;657034;-64
2023/10/18 10:01:57;;;;;;;1.90;1.30;;;13.50;66.20;;;;;;4403309;28;657116;-64
2023/10/18 10:04:44;;;;;;;7.67;3.90;;;13.20;65.70;;;;;;4388411;28;657892;-64
2023/10/18 10:07:39;;;;;;;9.20;4.57;;;12.90;68.80;;;;;;4428192;28;656217;-64
2023/10/18 10:10:43;;;;;;;9.97;5.53;;;12.80;69.60;;;;;;4407717;28;656191;-64
2023/10/18 10:13:32;;;;;;;8.00;3.50;;;11.40;72.70;;;;;;4401276;28;657276;-64
2023/10/18 10:16:24;;;;;;;6.30;3.23;;;12.20;72.10;;;;;;4410278;28;656398;-66
2023/10/18 10:19:12;;;;;;;5.37;2.57;;;12.90;71.00;;;;;;4408358;28;656786;-66
2023/10/18 10:22:04;;;;;;;3.63;2.17;;;12.50;65.40;;;;;;4407033;28;656955;-65
2023/10/18 10:24:59;;;;;;;12.15;4.00;;;12.50;67.70;;;;;;4407612;28;657289;-64
2023/10/18 10:27:52;;;;;;;8.97;4.40;;;13.00;70.10;;;;;;4405279;28;658192;-63
2023/10/18 10:30:43;;;;;;;7.67;4.40;;;13.10;64.30;;;;;;4386543;28;656736;-64
2023/10/18 10:34:00;;;;;;;7.97;4.20;;;13.50;65.10;;;;;;4407778;28;657372;-63
2023/10/18 10:36:47;;;;;;;9.17;5.47;;;14.20;65.50;;;;;;4401865;28;656242;-63
2023/10/18 10:39:43;;;;;;;9.53;4.53;;;13.30;60.70;;;;;;4431921;28;657566;-63
2023/10/18 10:42:43;;;;;;;9.47;4.43;;;13.60;64.10;;;;;;4414700;28;656206;-63
2023/10/18 10:45:32;;;;;;;12.57;4.70;;;13.80;64.30;;;;;;4409578;28;656901;-63
2023/10/18 10:48:45;;;;;;;13.30;5.27;;;13.60;61.70;;;;;;4402736;28;659657;-64
2023/10/18 10:51:37;;;;;;;8.00;2.03;;;14.20;67.20;;;;;;4383517;28;658998;-64
2023/10/18 10:54:29;;;;;;;8.23;4.33;;;13.60;59.70;;;;;;4403803;28;657031;-64
2023/10/18 10:57:17;;;;;;;13.77;3.93;;;13.80;62.00;;;;;;4402006;28;656675;-63
2023/10/18 11:00:22;;;;;;;4.33;2.97;;;12.80;60.90;;;;;;4404282;28;657515;-64
2023/10/18 11:03:28;;;;;;;11.87;4.93;;;13.30;62.80;;;;;;4380599;28;658086;-63
2023/10/18 11:06:21;;;;;;;3.80;2.13;;;13.70;65.60;;;;;;4401678;28;657999;-64
2023/10/18 11:09:15;;;;;;;7.73;3.17;;;13.70;63.20;;;;;;4409180;28;656453;-63
2023/10/18 11:12:03;;;;;;;12.13;5.50;;;13.50;63.80;;;;;;4391893;28;657423;-64
2023/10/18 11:14:52;;;;;;;9.27;4.97;;;13.90;62.60;;;;;;4424736;28;658131;-64
2023/10/18 11:17:42;;;;;;;7.20;3.37;;;13.70;60.50;;;;;;4407221;28;657983;-63
2023/10/18 11:20:48;;;;;;;6.50;3.97;;;14.40;60.10;;;;;;4400254;28;657871;-63
2023/10/18 11:23:37;;;;;;;5.37;3.17;;;14.40;59.30;;;;;;4398890;28;657585;-63
2023/10/18 11:26:27;;;;;;;6.97;4.43;;;14.10;61.60;;;;;;4421890;28;656821;-63
2023/10/18 11:29:14;;;;;;;11.17;5.00;;;14.40;58.10;;;;;;4408228;28;657820;-63
2023/10/18 11:32:02;;;;;;;11.43;5.10;;;13.70;63.70;;;;;;4430965;28;657427;-63
2023/10/18 11:34:51;;;;;;;11.63;4.63;;;13.30;60.70;;;;;;4412535;28;658545;-63
2023/10/18 11:37:39;;;;;;;11.50;4.77;;;14.20;62.80;;;;;;4412389;28;657780;-64
2023/10/18 11:40:29;;;;;;;8.90;4.50;;;14.60;58.40;;;;;;4429052;28;657782;-63
2023/10/18 11:43:26;;;;;;;6.20;3.13;;;15.20;60.50;;;;;;4396281;28;657343;-63
2023/10/18 11:46:13;;;;;;;8.87;4.20;;;14.80;53.70;;;;;;4378301;28;657263;-63
2023/10/18 11:49:01;;;;;;;8.87;3.03;;;14.30;58.20;;;;;;4436479;28;657488;-62
2023/10/18 11:51:48;;;;;;;4.60;2.47;;;14.40;56.20;;;;;;4413695;28;656329;-63
2023/10/18 11:54:36;;;;;;;7.27;4.60;;;14.40;55.30;;;;;;4432543;28;657644;-63
2023/10/18 11:57:28;;;;;;;10.47;3.37;;;15.10;55.70;;;;;;4410783;28;656936;-63
2023/10/18 12:00:35;;;;;;;6.17;3.27;;;16.00;53.10;;;;;;4390715;28;658950;-63
2023/10/18 12:03:27;;;;;;;8.77;3.90;;;16.30;52.80;;;;;;4388409;28;656144;-63
2023/10/18 12:06:14;;;;;;;8.43;3.90;;;16.10;52.60;;;;;;4394549;28;657732;-63
2023/10/18 12:12:07;;;;;;;8.30;4.40;;;16.00;50.50;;;;;;4393678;28;656570;-63
2023/10/18 12:14:54;;;;;;;7.27;4.37;;;15.80;51.60;;;;;;4408909;28;657689;-63
2023/10/18 12:17:45;;;;;;;6.17;3.00;;;16.50;51.50;;;;;;4431864;28;656600;-63
2023/10/18 12:20:36;;;;;;;14.53;4.93;;;15.80;49.90;;;;;;4411320;28;656706;-63
2023/10/18 12:23:25;;;;;;;9.00;4.40;;;14.80;51.20;;;;;;4411746;28;658053;-63
2023/10/18 12:26:12;;;;;;;8.83;4.37;;;16.10;55.60;;;;;;4429165;28;657060;-63
2023/10/18 12:29:03;;;;;;;15.07;5.60;;;17.10;53.80;;;;;;4436210;28;656896;-63
2023/10/18 12:31:53;;;;;;;5.60;3.00;;;16.40;49.30;;;;;;4408010;28;658902;-63
2023/10/18 12:34:43;;;;;;;8.63;5.17;;;15.00;52.00;;;;;;4409119;28;657548;-63
2023/10/18 12:37:32;;;;;;;7.97;4.90;;;15.40;52.00;;;;;;4407652;28;657938;-63
2023/10/18 12:40:28;;;;;;;14.10;5.80;;;15.80;52.30;;;;;;4408723;28;657686;-63
2023/10/18 12:43:17;;;;;;;13.45;4.95;;;15.70;49.90;;;;;;4382230;28;658913;-63
2023/10/18 12:46:06;;;;;;;9.43;5.47;;;15.20;55.00;;;;;;4414811;28;658224;-63
2023/10/18 12:48:53;;;;;;;10.97;5.30;;;16.20;53.40;;;;;;4416642;28;656457;-63
2023/10/18 12:51:42;;;;;;;13.13;6.13;;;17.00;51.40;;;;;;4433941;28;658103;-63
2023/10/18 12:54:33;;;;;;;15.77;6.03;;;17.10;47.70;;;;;;4401345;28;659046;-63
2023/10/18 12:57:21;;;;;;;11.80;6.23;;;16.00;47.70;;;;;;4410967;28;659415;-62
2023/10/18 13:00:13;;;;;;;11.45;5.85;;;16.60;52.70;;;;;;4415252;28;657642;-63
2023/10/18 13:06:15;;;;;;;11.43;5.83;;;17.90;46.00;;;;;;4411109;28;658332;-62
2023/10/18 13:12:16;;;;;;;11.00;5.87;;;16.80;48.40;;;;;;4393461;28;658023;-62
2023/10/18 13:15:02;;;;;;;11.77;7.17;;;18.00;48.10;;;;;;4380375;28;657977;-62
2023/10/18 13:17:49;;;;;;;11.87;6.17;;;17.60;47.70;;;;;;4437467;28;657358;-62
2023/10/18 13:20:36;;;;;;;11.77;6.70;;;18.40;46.40;;;;;;4434261;28;657814;-63
2023/10/18 13:23:27;;;;;;;10.10;5.70;;;18.20;45.10;;;;;;4405308;28;658235;-62
2023/10/18 13:26:18;;;;;;;15.60;6.60;;;17.70;45.90;;;;;;4410779;28;658312;-62
2023/10/18 13:29:13;;;;;;;14.80;7.10;;;17.20;47.40;;;;;;4414457;28;659030;-63
2023/10/18 13:32:06;;;;;;;11.17;6.83;;;17.80;48.60;;;;;;4391896;28;657931;-63
2023/10/18 13:34:53;;;;;;;10.20;6.93;;;18.00;46.70;;;;;;4410155;28;657679;-63
2023/10/18 13:37:41;;;;;;;11.77;6.63;;;18.10;47.40;;;;;;4432305;28;659486;-63
2023/10/18 13:40:30;;;;;;;11.80;6.63;;;17.80;47.10;;;;;;4411812;28;657739;-63
2023/10/18 13:43:18;;;;;;;14.90;7.47;;;17.40;48.40;;;;;;4433345;28;658053;-62
2023/10/18 13:46:08;;;;;;;14.13;7.18;;;16.70;50.30;;;;;;4410167;28;659028;-62
2023/10/18 13:48:55;;;;;;;11.07;6.77;;;15.50;50.60;;;;;;4410408;28;657757;-62
2023/10/18 13:51:43;;;;;;;21.70;8.20;;;15.20;50.90;;;;;;4414287;28;657682;-63
2023/10/18 13:54:31;;;;;;;16.40;7.03;;;14.40;50.10;;;;;;4433158;28;659700;-62
2023/10/18 13:57:18;;;;;;;19.87;7.37;;;14.30;53.20;;;;;;4413877;28;657723;-63
2023/10/18 14:00:08;;;;;;;15.20;7.40;;;14.30;52.30;;;;;;4432038;28;659010;-62
2023/10/18 14:02:55;;;;;;;17.13;7.20;;;14.50;54.00;;;;;;4410163;28;658481;-62
2023/10/18 14:05:45;;;;;;;13.80;7.53;;;14.30;54.80;;;;;;4413816;28;658132;-63
2023/10/18 14:08:32;;;;;;;17.80;6.97;;;14.50;54.00;;;;;;4412605;28;658506;-63
2023/10/18 14:11:20;;;;;;;12.33;6.63;;;14.10;53.40;;;;;;4434669;28;658775;-63
2023/10/18 14:14:08;;;;;;;17.93;7.80;;;13.80;56.90;;;;;;4411884;28;658358;-63
2023/10/18 14:16:57;;;;;;;15.13;7.53;;;12.90;56.80;;;;;;4432443;28;658674;-62
2023/10/18 14:19:46;;;;;;;16.33;7.13;;;12.70;57.40;;;;;;4409389;28;657463;-63
2023/10/18 14:22:33;;;;;;;13.80;6.27;;;13.20;59.00;;;;;;4411850;28;657961;-63
2023/10/18 14:25:20;;;;;;;44.93;16.50;;;13.20;76.20;;;;;;4429076;28;658076;-63
2023/10/18 14:28:08;;;;;;;26.10;10.90;;;13.30;66.60;;;;;;4415113;28;658589;-63
2023/10/18 14:30:57;;;;;;;20.87;8.50;;;13.30;62.70;;;;;;4434072;28;660333;-62
2023/10/18 14:33:46;;;;;;;70.80;27.53;;;13.20;70.40;;;;;;4412658;28;658873;-62
2023/10/18 14:36:33;;;;;;;13.17;6.53;;;13.10;84.30;;;;;;4420747;28;658898;-63